Leven, United Kingdom
Current Conditions -  °F | °C
As of 9:50 AM on Thursday 18 Dec 2014 (Local Time) from EGQL Reporting Station
Light Rain Light Rain  
Wind Chill: 41°   Ceiling: 6000
Heat Index: 46°   Visibility: 6mi
Dew Point: 45°   Wind: 12mph
Humidity: 93%   Direction: 250°WSW
Pressure: 29.29"   Gusts: NA
Location:  56.2°N, 3°W
Report Text: EGQL 180950Z 25010KT 9999 -RA FEW015 SCT032 BKN060 08/07 Q0992 BLU
Loading
Personal Weather Stations






























Interactive Weather Map New forecast layout! Learn more

10-Day Weather Forecast

Advertisements
Track Severe Weather on mobile